Time;durP1;ratioP1;P1;durP2;ratioP2;P2;SDS_P1;SDS_P2;PMS_P1;PMS_P2;Temp;Humidity;BMP_temperature;BMP_pressure;BME280_temperature;BME280_humidity;BME280_pressure;Samples;Min_cycle;Max_cycle;Signal;HPM_P1;HPM_P2
2021/07/06 00:01:21;;;;;;;2.73;2.30;;;;;;;17.62;72.82;100941.75;3561559;40;20246;-78
2021/07/06 00:03:46;;;;;;;2.47;2.27;;;;;;;17.58;72.97;100939.19;3553318;40;20249;-79
2021/07/06 00:06:12;;;;;;;4.70;2.73;;;;;;;17.60;73.11;100938.28;3561878;40;20215;-79
2021/07/06 00:08:37;;;;;;;2.90;2.70;;;;;;;17.59;73.30;100934.00;3561764;40;20532;-82
2021/07/06 00:11:02;;;;;;;2.73;2.10;;;;;;;17.51;73.39;100925.44;3561416;40;20956;-79
2021/07/06 00:13:28;;;;;;;3.57;2.80;;;;;;;17.49;73.45;100932.34;3561952;40;20220;-81
2021/07/06 00:15:53;;;;;;;5.83;2.87;;;;;;;17.55;73.49;100934.88;3561842;40;20235;-78
2021/07/06 00:18:18;;;;;;;2.80;2.60;;;;;;;17.56;72.96;100926.25;3553635;40;20224;-80
2021/07/06 00:20:43;;;;;;;4.53;3.23;;;;;;;17.68;73.14;100918.38;3562313;40;20677;-78
2021/07/06 00:23:08;;;;;;;8.73;3.23;;;;;;;17.60;73.06;100916.72;3552851;40;20222;-78
2021/07/06 00:25:34;;;;;;;2.37;2.17;;;;;;;17.59;73.15;100917.59;3553245;40;20313;-78
2021/07/06 00:27:59;;;;;;;3.30;2.73;;;;;;;17.50;73.52;100915.94;3562546;40;20239;-79
2021/07/06 00:30:26;;;;;;;2.97;2.67;;;;;;;17.43;73.63;100909.09;3561314;40;20633;-79
2021/07/06 00:32:52;;;;;;;3.00;2.80;;;;;;;17.44;73.95;100913.41;3561904;40;20246;-80
2021/07/06 00:35:18;;;;;;;3.50;2.57;;;;;;;17.54;73.35;100911.59;3561561;40;20207;-79
2021/07/06 00:37:44;;;;;;;3.33;3.03;;;;;;;17.55;73.81;100916.75;3552552;40;20223;-78
2021/07/06 00:40:10;;;;;;;2.73;2.47;;;;;;;17.50;73.78;100909.91;3560847;40;20220;-79
2021/07/06 00:42:40;;;;;;;3.37;3.07;;;;;;;17.46;73.82;100911.63;3561755;40;20227;-78
2021/07/06 00:45:07;;;;;;;4.63;3.03;;;;;;;17.47;73.68;100909.91;3552951;40;20294;-79
2021/07/06 00:47:34;;;;;;;3.27;2.63;;;;;;;17.58;73.42;100908.97;3560521;40;20279;-78
2021/07/06 00:50:01;;;;;;;3.13;2.80;;;;;;;17.57;73.64;100907.25;3561647;40;20699;-78
2021/07/06 00:52:27;;;;;;;5.43;2.60;;;;;;;17.60;73.44;100901.19;3552672;40;20237;-80
2021/07/06 00:54:52;;;;;;;3.07;2.73;;;;;;;17.57;73.42;100904.66;3561815;40;20239;-78
2021/07/06 00:57:17;;;;;;;2.93;2.70;;;;;;;17.52;73.74;100900.38;3562509;40;20228;-81
2021/07/06 00:59:42;;;;;;;2.97;2.60;;;;;;;17.63;73.62;100895.97;3562799;40;20230;-78
2021/07/06 01:02:08;;;;;;;5.50;2.80;;;;;;;17.74;72.84;100897.59;3561306;40;20251;-76
2021/07/06 01:04:33;;;;;;;3.03;2.33;;;;;;;17.79;72.53;100900.16;3553145;40;20238;-76
2021/07/06 01:06:58;;;;;;;2.67;2.40;;;;;;;17.73;72.72;100893.28;3553751;40;20606;-79
2021/07/06 01:09:23;;;;;;;2.77;2.50;;;;;;;17.66;72.86;100890.78;3552736;40;20222;-79
2021/07/06 01:11:49;;;;;;;3.80;2.70;;;;;;;17.57;73.80;100894.31;3562108;40;20242;-79
2021/07/06 01:14:19;;;;;;;3.03;2.83;;;;;;;17.63;73.20;100883.88;3561437;40;20291;-78
2021/07/06 01:16:46;;;;;;;2.30;2.07;;;;;;;17.60;73.16;100873.53;3562264;40;20243;-79
2021/07/06 01:19:14;;;;;;;3.93;2.90;;;;;;;17.65;73.10;100865.75;3568825;40;20325;-78
2021/07/06 01:21:39;;;;;;;3.13;2.80;;;;;;;17.57;73.66;100870.13;3561986;40;20251;-78
2021/07/06 01:24:04;;;;;;;3.30;2.80;;;;;;;17.53;73.40;100868.44;3561442;40;20277;-79
2021/07/06 01:26:30;;;;;;;2.97;2.50;;;;;;;17.58;73.32;100867.53;3552889;40;20216;-78
2021/07/06 01:28:55;;;;;;;1.50;1.40;;;;;;;17.61;73.12;100864.06;3560968;40;20258;-78
2021/07/06 01:31:20;;;;;;;3.13;2.70;;;;;;;17.68;73.07;100865.72;3560848;40;20239;-79
2021/07/06 01:33:46;;;;;;;2.37;2.17;;;;;;;17.63;73.14;100858.00;3561298;40;20352;-77
2021/07/06 01:36:11;;;;;;;2.90;2.57;;;;;;;17.95;72.12;100855.94;3561973;40;20212;-77
2021/07/06 01:38:36;;;;;;;3.27;2.57;;;;;;;17.75;72.56;100857.88;3561129;40;20579;-78
2021/07/06 01:41:03;;;;;;;3.10;2.60;;;;;;;17.74;72.50;100855.31;3560028;40;20250;-78
2021/07/06 01:43:29;;;;;;;2.83;2.43;;;;;;;18.04;71.57;100855.84;3560822;40;20239;-78
2021/07/06 01:45:54;;;;;;;3.37;2.70;;;;;;;18.13;70.70;100842.78;3561033;40;20620;-77
2021/07/06 01:48:19;;;;;;;3.67;2.90;;;;;;;17.97;71.47;100842.97;3560997;40;20219;-79
2021/07/06 01:50:45;;;;;;;3.60;2.60;;;;;;;17.86;71.62;100837.91;3560917;40;20510;-77
2021/07/06 01:53:14;;;;;;;3.07;2.63;;;;;;;17.82;72.03;100840.56;3560679;40;20232;-78
2021/07/06 01:55:43;;;;;;;4.00;2.50;;;;;;;17.83;72.03;100845.69;3560954;40;20301;-79
2021/07/06 01:58:10;;;;;;;5.73;3.10;;;;;;;17.92;71.88;100845.59;3560924;40;20231;-78
2021/07/06 02:00:39;;;;;;;6.53;3.00;;;;;;;17.97;71.06;100836.03;3560680;40;20239;-79
2021/07/06 02:03:05;;;;;;;3.37;2.80;;;;;;;17.80;72.25;100844.88;3551771;40;20227;-76
2021/07/06 02:05:37;;;;;;;3.30;3.00;;;;;;;17.75;72.08;100826.81;3559892;40;20227;-79
2021/07/06 02:08:04;;;;;;;2.63;2.43;;;;;;;17.75;72.54;100816.44;3560848;40;20223;-78
2021/07/06 02:10:30;;;;;;;2.93;2.67;;;;;;;17.81;72.34;100815.50;3560181;40;20286;-78
2021/07/06 02:12:57;;;;;;;3.93;3.00;;;;;;;17.74;72.14;100811.25;3560981;40;20234;-78
2021/07/06 02:15:22;;;;;;;3.97;2.97;;;;;;;17.76;71.71;100820.75;3561456;40;20243;-78
2021/07/06 02:17:48;;;;;;;5.13;3.00;;;;;;;17.74;72.33;100819.88;3561809;40;20644;-79
2021/07/06 02:20:17;;;;;;;5.70;3.37;;;;;;;17.84;71.80;100815.47;3561149;40;20700;-80
2021/07/06 02:22:44;;;;;;;3.37;3.07;;;;;;;17.75;72.71;100819.03;3560867;40;20554;-79
2021/07/06 02:25:10;;;;;;;4.13;3.37;;;;;;;17.88;71.69;100809.38;3562914;40;20223;-78
2021/07/06 02:27:36;;;;;;;5.30;3.23;;;;;;;17.99;71.77;100815.28;3563259;40;20238;-77
2021/07/06 02:30:03;;;;;;;6.77;3.30;;;;;;;17.89;71.28;100809.38;3563174;40;20215;-78
2021/07/06 02:32:28;;;;;;;4.17;3.77;;;;;;;17.84;71.71;100815.47;3562093;40;20822;-78
2021/07/06 02:34:53;;;;;;;3.93;3.37;;;;;;;17.91;71.03;100806.78;3551720;40;20230;-77
2021/07/06 02:37:19;;;;;;;3.37;2.77;;;;;;;17.86;71.79;100812.00;3561207;40;20638;-79
2021/07/06 02:39:48;;;;;;;3.87;3.17;;;;;;;17.92;71.58;100804.13;3559328;40;20243;-78
2021/07/06 02:42:13;;;;;;;4.07;2.93;;;;;;;17.96;71.46;100799.81;3560902;40;20239;-79
2021/07/06 02:44:38;;;;;;;4.57;3.13;;;;;;;17.87;71.93;100795.56;3560839;40;20242;-76
2021/07/06 02:47:03;;;;;;;5.50;3.47;;;;;;;17.89;72.50;100796.41;3560813;40;20242;-78
2021/07/06 02:49:29;;;;;;;4.90;2.83;;;;;;;17.84;72.60;100786.97;3554433;40;20246;-79
2021/07/06 02:51:54;;;;;;;4.00;3.60;;;;;;;17.81;72.63;100789.59;3560327;40;20243;-78
2021/07/06 02:54:19;;;;;;;3.30;2.90;;;;;;;17.78;72.81;100787.88;3567907;40;20222;-80
2021/07/06 02:56:44;;;;;;;5.33;3.33;;;;;;;17.71;73.10;100790.56;3551191;40;20231;-78
2021/07/06 02:59:10;;;;;;;3.73;2.90;;;;;;;17.82;72.95;100783.56;3560886;40;20230;-79
2021/07/06 03:01:35;;;;;;;3.90;3.30;;;;;;;17.75;73.47;100775.00;3561726;40;20254;-77
2021/07/06 03:04:00;;;;;;;2.93;2.73;;;;;;;17.72;73.52;100776.72;3567341;40;20305;-78
2021/07/06 03:06:28;;;;;;;3.80;2.80;;;;;;;17.63;73.56;100777.69;3560594;40;20235;-78
2021/07/06 03:08:55;;;;;;;2.97;2.70;;;;;;;17.71;73.33;100778.47;3560388;40;20220;-79
2021/07/06 03:11:21;;;;;;;3.40;3.00;;;;;;;17.80;72.93;100780.09;3560920;40;20487;-80
2021/07/06 03:13:46;;;;;;;5.97;2.93;;;;;;;17.85;73.05;100778.31;3551573;40;20221;-80
2021/07/06 03:16:11;;;;;;;3.37;2.90;;;;;;;17.82;72.95;100774.03;3551431;40;20223;-77
2021/07/06 03:18:36;;;;;;;3.83;3.07;;;;;;;17.88;72.81;100773.97;3560591;40;20688;-78
2021/07/06 03:21:02;;;;;;;4.77;2.87;;;;;;;17.77;73.26;100777.56;3559858;40;20242;-76
2021/07/06 03:23:28;;;;;;;4.20;3.67;;;;;;;17.79;73.42;100781.84;3560300;40;20235;-77
2021/07/06 03:25:53;;;;;;;3.33;2.33;;;;;;;17.84;73.18;100787.84;3560761;40;20285;-78
2021/07/06 03:28:19;;;;;;;4.00;2.73;;;;;;;17.75;73.42;100780.16;3560533;40;20242;-79
2021/07/06 03:30:44;;;;;;;7.93;2.70;;;;;;;18.00;72.58;100781.59;3560216;40;20251;-77
2021/07/06 03:33:10;;;;;;;3.50;3.20;;;;;;;17.92;72.63;100775.63;3552425;40;20238;-77
2021/07/06 03:35:36;;;;;;;7.13;3.10;;;;;;;17.80;73.15;100769.75;3561970;40;20596;-77
2021/07/06 03:38:02;;;;;;;4.13;2.87;;;;;;;17.85;73.13;100763.63;3562002;40;20226;-78
2021/07/06 03:40:30;;;;;;;5.00;3.00;;;;;;;17.92;72.65;100754.91;3561238;40;20255;-78
2021/07/06 03:42:56;;;;;;;3.17;2.83;;;;;;;17.80;73.18;100746.41;3562616;40;20235;-79
2021/07/06 03:45:23;;;;;;;5.27;2.90;;;;;;;17.74;73.66;100736.97;3561593;40;20528;-79
2021/07/06 03:47:48;;;;;;;5.53;3.00;;;;;;;17.72;73.35;100740.47;3561867;40;20282;-78
2021/07/06 03:50:19;;;;;;;4.53;3.20;;;;;;;17.66;74.35;100736.22;3562378;40;20242;-79
2021/07/06 03:52:49;;;;;;;4.57;2.83;;;;;;;17.84;72.73;100740.34;3561013;40;20239;-79
2021/07/06 03:55:15;;;;;;;4.00;2.90;;;;;;;17.96;72.34;100735.03;3553711;40;20625;-78
2021/07/06 03:57:41;;;;;;;4.57;2.90;;;;;;;17.89;73.33;100739.41;3562802;40;20218;-79
2021/07/06 04:00:09;;;;;;;3.80;3.07;;;;;;;17.89;73.30;100729.06;3562792;40;20238;-77
2021/07/06 04:02:35;;;;;;;3.40;2.67;;;;;;;17.80;73.16;100743.84;3552514;40;20234;-78
2021/07/06 04:05:02;;;;;;;4.10;2.87;;;;;;;17.77;73.22;100749.91;3561829;40;20235;-77
2021/07/06 04:07:27;;;;;;;4.47;3.13;;;;;;;17.91;72.50;100754.94;3553844;40;20261;-76
2021/07/06 04:09:53;;;;;;;4.17;2.80;;;;;;;18.00;72.43;100762.63;3561916;40;20316;-80
2021/07/06 04:12:18;;;;;;;4.57;3.20;;;;;;;18.04;72.77;100765.13;3563154;40;20610;-79
2021/07/06 04:14:43;;;;;;;3.93;2.67;;;;;;;18.09;72.19;100760.75;3554297;40;20309;-77
2021/07/06 04:17:09;;;;;;;5.30;3.10;;;;;;;18.30;71.12;100763.09;3553780;40;20293;-81
2021/07/06 04:19:34;;;;;;;3.77;2.60;;;;;;;18.26;71.41;100757.94;3562432;40;20280;-78
2021/07/06 04:21:59;;;;;;;5.07;3.30;;;;;;;18.13;71.71;100757.25;3561979;40;20243;-79
2021/07/06 04:24:25;;;;;;;4.20;2.90;;;;;;;18.21;71.83;100747.66;3561920;40;20590;-81
2021/07/06 04:26:50;;;;;;;4.10;2.60;;;;;;;18.33;71.45;100752.69;3563551;40;20227;-80
2021/07/06 04:29:16;;;;;;;3.00;2.30;;;;;;;18.25;72.12;100746.72;3554296;40;20253;-80
2021/07/06 04:31:41;;;;;;;4.10;3.30;;;;;;;18.23;71.86;100740.69;3562886;40;20250;-79
2021/07/06 04:34:06;;;;;;;4.27;3.00;;;;;;;18.30;71.62;100755.31;3561706;40;20239;-78
2021/07/06 04:36:31;;;;;;;4.80;3.33;;;;;;;18.33;71.80;100749.25;3555761;40;20502;-78
2021/07/06 04:38:58;;;;;;;5.20;3.53;;;;;;;18.31;72.03;100740.59;3552333;40;20212;-79
2021/07/06 04:41:23;;;;;;;3.10;2.80;;;;;;;18.52;71.45;100750.72;3568092;40;20254;-78
2021/07/06 04:43:48;;;;;;;4.00;2.80;;;;;;;18.48;71.36;100751.63;3561281;40;20219;-79
2021/07/06 04:46:14;;;;;;;6.60;3.23;;;;;;;18.52;71.82;100753.31;3561531;40;20237;-79
2021/07/06 04:48:39;;;;;;;4.33;3.10;;;;;;;18.73;70.93;100746.06;3561820;40;20580;-79
2021/07/06 04:51:07;;;;;;;3.93;2.90;;;;;;;18.72;70.98;100736.56;3562575;40;20250;-79
2021/07/06 04:53:32;;;;;;;3.63;2.80;;;;;;;18.65;71.16;100740.13;3553059;40;20221;-79
2021/07/06 04:55:59;;;;;;;8.37;3.43;;;;;;;18.83;70.79;100726.03;3552559;40;20514;-80
2021/07/06 04:58:24;;;;;;;4.13;3.50;;;;;;;18.89;70.21;100724.16;3552780;40;20223;-78
2021/07/06 05:00:50;;;;;;;5.37;3.30;;;;;;;19.01;70.03;100721.38;3554056;40;20326;-78
2021/07/06 05:03:15;;;;;;;4.33;3.10;;;;;;;18.96;70.21;100711.94;3551309;40;20224;-78
2021/07/06 05:05:40;;;;;;;3.57;3.27;;;;;;;19.26;68.82;100707.09;3551147;40;20216;-79
2021/07/06 05:08:09;;;;;;;4.87;3.43;;;;;;;19.25;69.18;100710.59;3552124;40;20236;-78
2021/07/06 05:10:35;;;;;;;3.83;3.40;;;;;;;19.30;69.40;100706.16;3554195;40;20250;-78
2021/07/06 05:13:00;;;;;;;6.27;3.70;;;;;;;19.53;68.63;100697.97;3556376;40;20540;-78
2021/07/06 05:15:25;;;;;;;3.87;3.27;;;;;;;20.10;66.38;100702.00;3552260;40;20829;-78
2021/07/06 05:17:51;;;;;;;5.17;3.47;;;;;;;20.22;66.72;100712.97;3558944;40;20309;-78
2021/07/06 05:20:16;;;;;;;4.93;3.43;;;;;;;20.54;65.46;100707.91;3551583;40;20500;-77
2021/07/06 05:22:42;;;;;;;3.90;3.33;;;;;;;21.03;64.05;100703.25;3554282;40;20235;-78
2021/07/06 05:25:08;;;;;;;3.60;3.30;;;;;;;21.25;63.83;100708.78;3561695;40;20258;-78
2021/07/06 05:27:33;;;;;;;3.63;3.07;;;;;;;21.42;62.93;100704.81;3560957;40;20274;-76
2021/07/06 05:29:59;;;;;;;4.40;3.10;;;;;;;21.75;62.46;100718.72;3565616;40;20598;-78
2021/07/06 05:32:24;;;;;;;4.00;2.97;;;;;;;21.50;63.63;100731.53;3562272;40;20293;-77
2021/07/06 05:34:49;;;;;;;3.80;2.80;;;;;;;21.61;62.56;100744.28;3562063;40;20219;-77
2021/07/06 05:37:15;;;;;;;5.33;2.97;;;;;;;21.84;61.30;100742.75;3562248;40;20219;-77
2021/07/06 05:39:40;;;;;;;3.23;2.70;;;;;;;21.72;61.54;100742.25;3553092;40;20333;-83
2021/07/06 05:42:07;;;;;;;3.13;2.90;;;;;;;21.49;62.21;100750.69;3553160;40;20652;-77
2021/07/06 05:44:33;;;;;;;8.60;2.80;;;;;;;21.24;63.19;100752.19;3562252;40;20219;-77
2021/07/06 05:46:58;;;;;;;4.00;2.83;;;;;;;21.17;63.58;100757.59;3561651;40;20241;-77
2021/07/06 05:49:23;;;;;;;3.10;2.80;;;;;;;20.98;64.48;100757.22;3561178;40;20238;-77
2021/07/06 05:51:50;;;;;;;2.87;2.57;;;;;;;20.99;64.31;100750.25;3552162;40;20235;-78
2021/07/06 05:54:15;;;;;;;3.40;2.43;;;;;;;20.87;64.91;100758.34;3561009;40;20212;-77
2021/07/06 05:56:41;;;;;;;2.50;2.30;;;;;;;21.04;64.79;100748.38;3568229;40;20695;-77
2021/07/06 05:59:06;;;;;;;3.93;2.40;;;;;;;21.16;63.27;100741.13;3561482;40;20247;-76
2021/07/06 06:01:34;;;;;;;2.57;2.37;;;;;;;21.19;63.96;100745.41;3561077;40;20246;-76
2021/07/06 06:03:59;;;;;;;3.10;2.60;;;;;;;21.06;64.20;100744.00;3561140;40;20227;-77
2021/07/06 06:06:24;;;;;;;4.40;2.70;;;;;;;21.10;63.84;100730.00;3561260;40;20227;-77
2021/07/06 06:08:49;;;;;;;2.57;2.37;;;;;;;21.18;64.08;100722.84;3568435;40;20237;-75
2021/07/06 06:11:15;;;;;;;4.50;2.50;;;;;;;21.13;63.76;100722.97;3560211;40;20239;-78
2021/07/06 06:13:40;;;;;;;4.10;2.60;;;;;;;21.03;64.68;100718.03;3553032;40;20716;-78
2021/07/06 06:16:07;;;;;;;3.30;2.10;;;;;;;21.18;64.48;100705.47;3563138;40;20239;-78
2021/07/06 06:18:32;;;;;;;5.33;2.57;;;;;;;21.28;63.48;100693.91;3559763;40;20235;-76
2021/07/06 06:20:57;;;;;;;4.70;2.37;;;;;;;21.21;64.11;100696.72;3551541;40;20247;-77
2021/07/06 06:23:22;;;;;;;3.80;2.30;;;;;;;21.51;63.41;100694.13;3559807;40;20509;-76
2021/07/06 06:25:48;;;;;;;2.33;2.10;;;;;;;22.14;61.83;100694.94;3561286;40;20223;-77
2021/07/06 06:28:13;;;;;;;5.17;2.17;;;;;;;22.63;60.22;100698.66;3560888;40;20530;-78
2021/07/06 06:30:38;;;;;;;3.07;1.87;;;;;;;23.19;58.69;100695.06;3560702;40;20247;-78
2021/07/06 06:33:04;;;;;;;2.20;1.87;;;;;;;23.56;57.71;100695.47;3561332;40;20227;-78
2021/07/06 06:35:29;;;;;;;2.53;2.20;;;;;;;23.65;57.17;100706.47;3560937;40;20265;-77
2021/07/06 06:37:54;;;;;;;3.10;2.00;;;;;;;23.86;56.73;100705.69;3552467;40;20215;-78
2021/07/06 06:40:19;;;;;;;3.40;1.80;;;;;;;24.01;56.45;100692.06;3560773;40;20269;-78
2021/07/06 06:42:45;;;;;;;5.07;1.98;;;;;;;23.91;56.34;100690.69;3561570;40;20247;-77
2021/07/06 06:45:12;;;;;;;1.88;1.65;;;;;;;24.03;55.83;100685.00;3560332;40;20610;-78
2021/07/06 06:47:39;;;;;;;2.10;1.63;;;;;;;24.58;55.03;100668.81;3551403;40;20250;-78
2021/07/06 06:50:06;;;;;;;5.03;1.80;;;;;;;24.72;53.25;100670.94;3560357;40;20234;-79
2021/07/06 06:52:32;;;;;;;2.05;1.63;;;;;;;24.89;53.64;100671.06;3561003;40;20219;-77
2021/07/06 06:54:57;;;;;;;3.22;1.60;;;;;;;25.26;52.94;100682.59;3558614;40;20636;-77
2021/07/06 06:57:24;;;;;;;2.25;1.60;;;;;;;25.58;52.40;100671.53;3559747;40;20235;-78
2021/07/06 06:59:49;;;;;;;2.40;1.30;;;;;;;25.89;50.65;100663.97;3552368;40;20228;-78
2021/07/06 07:02:18;;;;;;;1.20;1.15;;;;;;;25.98;49.74;100671.47;3552498;40;20252;-78
2021/07/06 07:04:45;;;;;;;2.75;1.40;;;;;;;25.60;51.01;100667.06;3559774;40;20343;-78
2021/07/06 07:07:11;;;;;;;3.45;1.30;;;;;;;25.78;50.12;100668.03;3560270;40;20215;-78
2021/07/06 07:09:37;;;;;;;3.65;1.55;;;;;;;25.24;52.47;100658.16;3560310;40;20624;-77
2021/07/06 07:12:02;;;;;;;2.10;1.45;;;;;;;25.45;51.83;100662.50;3560410;40;20246;-78
2021/07/06 07:14:28;;;;;;;2.03;1.30;;;;;;;24.97;52.74;100675.09;3552119;40;20700;-78
2021/07/06 07:16:53;;;;;;;1.35;1.25;;;;;;;24.89;52.45;100671.06;3559888;40;20247;-78
2021/07/06 07:19:18;;;;;;;2.42;1.23;;;;;;;24.64;53.63;100665.97;3560287;40;20525;-78
2021/07/06 07:21:43;;;;;;;2.85;1.52;;;;;;;24.50;53.35;100678.75;3560399;40;20243;-77
2021/07/06 07:24:09;;;;;;;2.67;1.40;;;;;;;24.24;53.98;100684.19;3551278;40;20581;-78
2021/07/06 07:26:34;;;;;;;1.52;1.30;;;;;;;24.43;53.87;100681.66;3560054;40;20235;-78
2021/07/06 07:29:01;;;;;;;4.00;1.70;;;;;;;24.43;53.33;100687.78;3559826;40;20227;-78
2021/07/06 07:31:27;;;;;;;1.48;1.38;;;;;;;24.26;54.65;100687.56;3559095;40;20250;-77
2021/07/06 07:33:52;;;;;;;2.22;1.38;;;;;;;24.69;52.58;100679.78;3559857;40;20242;-77
2021/07/06 07:36:17;;;;;;;2.80;1.55;;;;;;;25.62;51.75;100677.50;3560428;40;20239;-77
2021/07/06 07:38:43;;;;;;;1.67;1.27;;;;;;;26.46;49.64;100674.38;3560003;40;20628;-78
2021/07/06 07:41:08;;;;;;;3.95;1.20;;;;;;;26.71;48.65;100668.81;3550812;40;20393;-78
2021/07/06 07:43:33;;;;;;;1.58;1.10;;;;;;;26.72;48.79;100674.00;3560597;40;20239;-77
2021/07/06 07:45:58;;;;;;;2.38;1.20;;;;;;;26.55;48.67;100670.44;3560789;40;20938;-78
2021/07/06 07:48:24;;;;;;;2.50;1.25;;;;;;;26.38;48.25;100668.66;3599815;23;20257;-79
2021/07/06 07:50:49;;;;;;;3.38;1.23;;;;;;;27.31;49.29;100678.91;3577589;40;20238;-81
2021/07/06 07:53:14;;;;;;;1.70;1.15;;;;;;;28.34;47.63;100673.22;3576923;40;20245;-81
2021/07/06 07:55:40;;;;;;;1.92;0.98;;;;;;;30.40;44.27;100665.91;3578661;40;20237;-80
2021/07/06 07:58:05;;;;;;;2.47;1.10;;;;;;;32.44;39.73;100643.59;3593013;40;20230;-81
2021/07/06 08:00:30;;;;;;;2.47;1.10;;;;;;;34.22;35.58;100636.66;3577536;40;20246;-81
2021/07/06 08:02:59;;;;;;;2.25;0.95;;;;;;;35.83;34.57;100634.28;3576954;40;20226;-83
2021/07/06 08:05:24;;;;;;;0.90;0.90;;;;;;;36.35;31.61;100623.34;3576316;40;20253;-81
2021/07/06 08:07:50;;;;;;;2.00;1.00;;;;;;;37.08;30.95;100625.41;3576539;40;20805;-81
2021/07/06 08:10:15;;;;;;;1.58;0.95;;;;;;;38.45;30.31;100623.53;3576049;40;20289;-81
2021/07/06 08:12:40;;;;;;;1.45;1.00;;;;;;;39.36;28.49;100623.91;3576673;40;20589;-81
2021/07/06 08:15:06;;;;;;;2.80;1.10;;;;;;;38.83;27.45;100625.00;3567887;40;20299;-81
2021/07/06 08:17:32;;;;;;;3.67;1.20;;;;;;;39.49;28.98;100634.22;3576080;40;20246;-81
2021/07/06 08:19:59;;;;;;;2.60;1.10;;;;;;;39.50;27.03;100619.81;3576753;40;20287;-81
2021/07/06 08:22:26;;;;;;;0.95;0.95;;;;;;;39.29;27.85;100616.63;3576935;40;20297;-81
2021/07/06 08:24:52;;;;;;;3.22;1.23;;;;;;;38.96;29.30;100615.59;3577284;40;20552;-82
2021/07/06 08:27:17;;;;;;;1.67;1.10;;;;;;;39.17;28.46;100623.28;3577121;40;20225;-82
2021/07/06 08:29:43;;;;;;;2.15;1.30;;;;;;;39.39;28.06;100610.19;3576624;40;20616;-81
2021/07/06 08:32:08;;;;;;;6.75;1.20;;;;;;;38.51;29.09;100627.41;3578087;40;20809;-81
2021/07/06 08:34:33;;;;;;;1.40;1.10;;;;;;;37.70;30.37;100627.50;3584415;40;20215;-81
2021/07/06 08:36:58;;;;;;;12.25;2.78;;;;;;;36.62;31.57;100617.28;3577903;40;20230;-80
2021/07/06 08:39:24;;;;;;;1.53;1.30;;;;;;;34.35;35.54;100623.22;3716205;23;20261;-83
2021/07/06 08:41:49;;;;;;;3.85;1.42;;;;;;;33.27;45.30;100635.44;3565909;40;20242;-83
2021/07/06 08:44:16;;;;;;;3.08;1.50;;;;;;;29.63;55.05;100639.16;3566110;40;20514;-82
2021/07/06 08:46:41;;;;;;;1.65;1.55;;;;;;;27.94;61.08;100654.44;3563684;40;20235;-81
2021/07/06 08:49:07;;;;;;;3.63;3.00;;;;;;;27.58;57.31;100651.16;3563771;40;20226;-81
2021/07/06 08:51:34;;;;;;;1.65;1.55;;;;;;;28.16;51.28;100640.00;3563258;40;20239;-80
2021/07/06 08:53:59;;;;;;;1.90;1.60;;;;;;;28.09;55.62;100636.00;3563280;40;20227;-81
2021/07/06 08:56:24;;;;;;;1.70;1.50;;;;;;;28.15;53.13;100640.09;3563869;40;20523;-80
2021/07/06 08:58:52;;;;;;;1.88;1.65;;;;;;;28.89;56.50;100658.63;3563906;40;20305;-81
2021/07/06 09:01:25;;;;;;;2.00;1.67;;;;;;;29.92;48.11;100651.38;3564134;40;20266;-81
2021/07/06 09:04:00;;;;;;;2.55;1.85;;;;;;;30.56;52.23;100663.94;3564888;40;20695;-80
2021/07/06 09:06:29;;;;;;;2.25;1.35;;;;;;;31.17;49.73;100664.22;3565298;40;20315;-82
2021/07/06 09:09:23;;;;;;;2.65;1.42;;;;;;;31.69;45.41;100656.19;3564717;40;20542;-84
2021/07/06 09:11:51;;;;;;;2.97;1.80;;;;;;;31.90;49.14;100646.75;3564159;40;20246;-81
2021/07/06 09:14:17;;;;;;;2.72;1.42;;;;;;;31.50;50.43;100654.00;3554694;40;20555;-82
2021/07/06 09:16:43;;;;;;;2.47;1.45;;;;;;;31.34;47.89;100666.59;3563862;40;20239;-82
2021/07/06 09:19:19;;;;;;;3.38;1.30;;;;;;;30.26;48.08;100675.69;3563469;40;20328;-82
2021/07/06 09:21:46;;;;;;;2.40;1.42;;;;;;;29.52;51.21;100678.50;3564304;40;20529;-82
2021/07/06 09:24:22;;;;;;;3.00;1.70;;;;;;;28.71;51.53;100683.41;3563549;40;20287;-81
2021/07/06 09:26:48;;;;;;;2.03;1.38;;;;;;;28.50;50.52;100679.34;3563721;40;20233;-84
2021/07/06 09:29:14;;;;;;;2.15;1.40;;;;;;;28.67;47.42;100688.94;3563830;40;20234;-81
2021/07/06 09:31:39;;;;;;;2.60;1.33;;;;;;;29.03;45.71;100682.41;3563849;40;20247;-83
2021/07/06 09:34:06;;;;;;;3.75;1.48;;;;;;;29.23;46.38;100683.84;3564148;40;20301;-81
2021/07/06 09:36:44;;;;;;;2.75;1.70;;;;;;;29.33;53.71;100683.22;3563693;40;20308;-81
2021/07/06 09:39:26;;;;;;;1.48;1.35;;;;;;;29.94;46.84;100675.06;3564358;40;20231;-81
2021/07/06 09:42:03;;;;;;;3.42;1.88;;;;;;;30.27;43.60;100674.72;3564211;40;20253;-80
2021/07/06 09:44:36;;;;;;;4.50;2.17;;;;;;;29.79;50.90;100674.22;3564494;40;20238;-81
2021/07/06 09:47:08;;;;;;;1.90;1.65;;;;;;;29.20;48.22;100681.41;3564259;40;20255;-82
2021/07/06 09:49:38;;;;;;;2.65;1.63;;;;;;;29.09;47.03;100671.50;3562328;40;20243;-82
2021/07/06 09:52:16;;;;;;;1.70;1.48;;;;;;;29.34;47.83;100671.72;3560025;40;20243;-81
2021/07/06 09:54:45;;;;;;;2.92;1.83;;;;;;;29.30;52.61;100672.84;3558163;40;20481;-81
2021/07/06 09:57:13;;;;;;;2.70;1.42;;;;;;;30.32;46.66;100659.41;3562103;40;20295;-80
2021/07/06 09:59:55;;;;;;;2.13;1.50;;;;;;;31.32;55.02;100662.34;3563594;40;20223;-81
2021/07/06 10:02:22;;;;;;;3.97;1.50;;;;;;;32.30;44.09;100658.84;3564589;40;20255;-81
2021/07/06 10:04:58;;;;;;;2.55;1.40;;;;;;;32.31;36.97;100650.78;3565468;40;20230;-83
2021/07/06 10:07:25;;;;;;;2.88;1.25;;;;;;;30.36;39.92;100675.00;3562642;40;20933;-79
2021/07/06 10:09:51;;;;;;;3.58;1.50;;;;;;;29.30;42.55;100672.00;3562622;40;20231;-79
2021/07/06 10:12:18;;;;;;;2.53;1.40;;;;;;;28.57;44.04;100678.09;3557925;40;20252;-80
2021/07/06 10:14:44;;;;;;;1.88;1.30;;;;;;;27.90;44.82;100688.00;3551492;40;20232;-80
2021/07/06 10:17:10;;;;;;;1.90;1.35;;;;;;;27.59;46.23;100687.06;3553710;40;20234;-79
2021/07/06 10:19:39;;;;;;;1.30;1.20;;;;;;;27.45;46.69;100685.13;3553096;40;20276;-79
2021/07/06 10:22:06;;;;;;;2.47;1.52;;;;;;;27.31;46.84;100685.00;3552711;40;20301;-80
2021/07/06 10:24:36;;;;;;;3.33;1.52;;;;;;;27.06;46.83;100681.91;3552768;40;20219;-79
2021/07/06 10:27:05;;;;;;;3.58;1.50;;;;;;;26.95;48.04;100684.22;3551700;40;20231;-79
2021/07/06 10:29:32;;;;;;;4.28;1.50;;;;;;;26.85;48.15;100690.03;3560837;40;20234;-80
2021/07/06 10:31:57;;;;;;;3.72;1.50;;;;;;;26.67;47.91;100691.75;3561450;40;20243;-80
2021/07/06 10:34:26;;;;;;;4.22;1.52;;;;;;;26.57;47.84;100694.94;3561759;40;20219;-79
2021/07/06 10:36:51;;;;;;;2.50;1.23;;;;;;;26.37;47.76;100702.84;3561228;40;20247;-79
2021/07/06 10:39:18;;;;;;;5.60;1.40;;;;;;;26.20;49.04;100708.06;3561584;40;20247;-79
2021/07/06 10:41:54;;;;;;;5.00;1.48;;;;;;;26.25;48.55;100706.91;3562026;40;20254;-79
2021/07/06 10:44:30;;;;;;;3.60;1.80;;;;;;;26.11;49.50;100708.50;3562696;40;20529;-79
2021/07/06 10:46:56;;;;;;;1.98;1.40;;;;;;;26.02;48.95;100701.88;3562595;40;20250;-79
2021/07/06 10:49:32;;;;;;;4.45;1.35;;;;;;;25.99;49.09;100695.94;3561745;40;20231;-80
2021/07/06 10:52:00;;;;;;;2.78;1.50;;;;;;;26.33;48.42;100691.66;3562761;40;20254;-80
2021/07/06 10:54:29;;;;;;;2.05;1.50;;;;;;;26.30;49.05;100693.59;3562663;40;20293;-80
2021/07/06 10:57:06;;;;;;;1.83;1.33;;;;;;;26.23;49.39;100700.03;3561886;40;20245;-80
2021/07/06 10:59:34;;;;;;;3.28;1.58;;;;;;;26.26;50.24;100710.41;3562484;40;20226;-80
2021/07/06 11:02:02;;;;;;;1.40;1.27;;;;;;;26.29;51.28;100702.41;3563107;40;20234;-80
2021/07/06 11:04:36;;;;;;;2.05;1.52;;;;;;;26.23;49.40;100716.66;3562583;40;20218;-80
2021/07/06 11:07:03;;;;;;;1.98;1.45;;;;;;;26.15;50.17;100713.53;3561651;40;20225;-80
2021/07/06 11:09:28;;;;;;;1.30;1.20;;;;;;;26.04;50.07;100709.69;3562372;40;20559;-79
2021/07/06 11:12:26;;;;;;;1.50;1.40;;;;;;;25.82;50.77;100716.81;3562534;40;20249;-79
2021/07/06 11:15:04;;;;;;;2.20;1.48;;;;;;;25.62;51.16;100715.09;3564058;40;20226;-80
2021/07/06 11:17:37;;;;;;;3.53;1.55;;;;;;;25.65;51.47;100724.59;3560646;40;20609;-79
2021/07/06 11:20:12;;;;;;;3.10;1.38;;;;;;;25.46;52.08;100715.81;3562555;40;20235;-80
2021/07/06 11:22:55;;;;;;;1.60;1.50;;;;;;;25.48;51.03;100720.09;3561373;40;20223;-80